createdAt,value
2019-05-01T00:00:48.082Z,101397.13
2019-05-01T00:03:39.883Z,101401.10
2019-05-01T00:06:10.880Z,101401.82
2019-05-01T00:08:41.691Z,101399.41
2019-05-01T00:11:11.724Z,101400.99
2019-05-01T00:13:41.767Z,101406.06
2019-05-01T00:16:11.889Z,101404.53
2019-05-01T00:18:41.679Z,101404.06
2019-05-01T00:21:11.623Z,101399.37
2019-05-01T00:23:41.518Z,101386.72
2019-05-01T00:26:11.374Z,101384.19
2019-05-01T00:28:41.334Z,101382.37
2019-05-01T00:31:11.342Z,101381.81
2019-05-01T00:33:41.210Z,101385.28
2019-05-01T00:36:11.485Z,101376.00
2019-05-01T00:38:41.271Z,101383.14
2019-05-01T00:41:11.157Z,101378.46
2019-05-01T00:43:40.961Z,101384.98
2019-05-01T00:46:10.830Z,101380.44
2019-05-01T00:48:40.717Z,101378.52
2019-05-01T00:51:12.572Z,101375.27
2019-05-01T00:53:42.523Z,101374.67
2019-05-01T00:56:20.290Z,101374.92
2019-05-01T00:58:59.166Z,101375.07
2019-05-01T01:02:06.252Z,101377.13
2019-05-01T01:04:36.530Z,101375.56
2019-05-01T01:07:06.478Z,101375.48
2019-05-01T01:09:36.435Z,101366.81
2019-05-01T01:12:06.403Z,101367.17
2019-05-01T01:14:36.319Z,101368.02
2019-05-01T01:17:06.642Z,101364.69
2019-05-01T01:19:36.829Z,101352.16
2019-05-01T01:22:07.368Z,101359.40
2019-05-01T01:24:37.513Z,101364.57
2019-05-01T01:27:07.457Z,101365.67
2019-05-01T01:29:37.398Z,101359.52
2019-05-01T01:32:07.513Z,101354.73
2019-05-01T01:34:37.804Z,101350.49
2019-05-01T01:59:15.685Z,101342.19
2019-05-01T02:02:04.264Z,101344.60
2019-05-01T02:04:48.030Z,101342.07
2019-05-01T02:07:18.152Z,101334.61
2019-05-01T02:09:48.191Z,101331.00
2019-05-01T02:12:19.440Z,101332.45
2019-05-01T02:14:49.377Z,101330.17
2019-05-01T02:17:19.326Z,101324.63
2019-05-01T02:19:49.260Z,101321.50
2019-05-01T02:22:19.211Z,101324.75
2019-05-01T02:24:49.165Z,101322.58
2019-05-01T02:27:25.003Z,101324.02
2019-05-01T02:29:58.180Z,101321.64
2019-05-01T02:32:29.770Z,101321.77
2019-05-01T02:35:01.111Z,101324.53
2019-05-01T02:37:34.429Z,101321.64
2019-05-01T02:40:16.956Z,101322.12
2019-05-01T02:42:46.902Z,101317.06
2019-05-01T02:45:18.139Z,101320.32
2019-05-01T02:47:49.071Z,101321.64
2019-05-01T02:50:21.260Z,101317.55
2019-05-01T02:52:51.446Z,101313.22
2019-05-01T02:55:28.464Z,101304.31
2019-05-01T02:57:59.052Z,101307.09
2019-05-01T03:00:29.498Z,101314.66
2019-05-01T03:03:01.180Z,101308.28
2019-05-01T03:05:31.585Z,101306.59
2019-05-01T03:08:01.523Z,101307.92
2019-05-01T03:10:31.678Z,101303.59
2019-05-01T03:13:02.837Z,101307.92
2019-05-01T03:15:35.717Z,101303.83
2019-05-01T03:18:16.130Z,101302.86
2019-05-01T03:21:03.702Z,101299.73
2019-05-01T03:23:40.600Z,101296.73
2019-05-01T03:26:11.017Z,101298.77
2019-05-01T03:28:41.785Z,101303.00
2019-05-01T03:31:11.992Z,101298.42
2019-05-01T03:33:41.933Z,101294.21
2019-05-01T03:36:12.066Z,101293.37
2019-05-01T03:38:42.640Z,101291.56
2019-05-01T03:41:12.881Z,101294.58
2019-05-01T03:43:43.026Z,101295.05
2019-05-01T03:46:13.409Z,101303.72
2019-05-01T03:48:43.673Z,101294.09
2019-05-01T03:51:14.342Z,101294.45
2019-05-01T03:53:44.403Z,101293.50
2019-05-01T03:56:15.141Z,101286.77
2019-05-01T03:58:45.161Z,101291.67
2019-05-01T04:01:38.327Z,101286.02
2019-05-01T04:04:11.529Z,101294.33
2019-05-01T04:06:41.855Z,101295.41
2019-05-01T04:09:11.939Z,101294.70
2019-05-01T04:11:42.221Z,101291.30
2019-05-01T04:14:12.877Z,101294.30
2019-05-01T04:16:45.820Z,101298.28
2019-05-01T04:19:16.180Z,101300.92
2019-05-01T04:21:52.276Z,101297.55
2019-05-01T04:24:22.642Z,101307.18
2019-05-01T04:26:53.311Z,101308.14
2019-05-01T04:29:31.808Z,101295.27
2019-05-01T04:32:10.623Z,101304.78
2019-05-01T04:34:58.243Z,101306.58
2019-05-01T04:37:29.130Z,101306.70
2019-05-01T04:39:59.589Z,101309.25
2019-05-01T04:42:29.519Z,101313.58
2019-05-01T04:45:00.030Z,101313.22
2019-05-01T04:47:29.529Z,101316.09
2019-05-01T04:50:00.609Z,101312.72
2019-05-01T04:52:30.554Z,101313.93
2019-05-01T04:55:00.508Z,101306.83
2019-05-01T04:57:30.994Z,101303.59
2019-05-01T05:00:01.343Z,101306.23
2019-05-01T05:02:38.232Z,101311.53
2019-05-01T05:05:08.538Z,101314.77
2019-05-01T05:07:38.511Z,101303.83
2019-05-01T05:10:09.146Z,101305.52
2019-05-01T05:12:56.797Z,101312.13
2019-05-01T05:15:43.253Z,101314.07
2019-05-01T05:18:14.126Z,101306.00
2019-05-01T05:20:44.061Z,101313.70
2019-05-01T05:23:14.001Z,101313.22
2019-05-01T05:25:44.153Z,101316.59
2019-05-01T05:28:14.504Z,101311.77
2019-05-01T05:30:45.758Z,101309.61
2019-05-01T05:33:19.419Z,101318.27
2019-05-01T05:35:52.900Z,101314.19
2019-05-01T05:38:29.661Z,101313.11
2019-05-01T05:41:01.038Z,101313.44
2019-05-01T05:43:31.475Z,101319.73
2019-05-01T05:46:01.504Z,101321.89
2019-05-01T05:48:31.665Z,101315.97
2019-05-01T05:51:22.774Z,101314.66
2019-05-01T05:53:54.706Z,101316.59
2019-05-01T05:56:31.437Z,101319.83
2019-05-01T05:59:08.497Z,101318.63
2019-05-01T06:01:59.438Z,101324.03
2019-05-01T06:04:55.445Z,101315.98
2019-05-01T06:07:35.175Z,101318.76
2019-05-01T06:10:42.612Z,101317.80
2019-05-01T06:13:23.071Z,101318.76
2019-05-01T06:16:11.911Z,101321.87
2019-05-01T06:18:50.242Z,101324.64
2019-05-01T06:21:28.387Z,101321.05
2019-05-01T06:24:17.698Z,101318.02
2019-05-01T06:26:47.734Z,101316.70
2019-05-01T06:29:17.664Z,101316.81
2019-05-01T06:31:47.726Z,101320.30
2019-05-01T06:34:17.987Z,101319.73
2019-05-01T06:36:49.701Z,101319.48
2019-05-01T06:39:19.900Z,101323.91
2019-05-01T06:41:50.028Z,101319.10
2019-05-01T06:44:43.851Z,101318.03
2019-05-01T06:47:30.090Z,101316.59
2019-05-01T06:50:12.904Z,101312.97
2019-05-01T06:52:42.804Z,101319.00
2019-05-01T06:55:12.910Z,101308.86
2019-05-01T06:57:45.482Z,101317.77
2019-05-01T07:00:17.261Z,101318.73
2019-05-01T07:02:50.011Z,101323.55
2019-05-01T07:05:22.137Z,101327.88
2019-05-01T07:07:55.005Z,101330.64
2019-05-01T07:10:31.602Z,101331.97
2019-05-01T07:13:05.185Z,101329.68
2019-05-01T07:15:34.264Z,101332.45
2019-05-01T07:18:05.124Z,101328.24
2019-05-01T07:20:53.599Z,101333.67
2019-05-01T07:23:24.570Z,101329.33
2019-05-01T07:25:55.083Z,101327.53
2019-05-01T07:28:34.478Z,101333.52
2019-05-01T07:31:13.852Z,101334.48
2019-05-01T07:33:47.030Z,101329.67
2019-05-01T07:36:17.688Z,101330.64
2019-05-01T07:38:48.610Z,101325.91
2019-05-01T07:41:18.763Z,101329.04
2019-05-01T07:44:14.590Z,101334.13
2019-05-01T07:47:03.467Z,101328.59
2019-05-01T07:49:54.916Z,101330.63
2019-05-01T07:52:25.698Z,101331.00
2019-05-01T07:54:57.132Z,101337.62
2019-05-01T07:57:28.232Z,101336.41
2019-05-01T08:00:03.651Z,101331.95
2019-05-01T08:02:32.712Z,101335.92
2019-05-01T08:05:04.921Z,101338.94
2019-05-01T08:07:34.439Z,101336.05
2019-05-01T08:10:06.367Z,101335.35
2019-05-01T08:12:36.342Z,101332.83
2019-05-01T08:15:06.773Z,101340.50
2019-05-01T08:17:39.757Z,101342.30
2019-05-01T08:20:23.249Z,101339.41
2019-05-01T08:22:53.303Z,101334.73
2019-05-01T08:25:23.817Z,101341.47
2019-05-01T08:28:05.982Z,101337.86
2019-05-01T08:31:01.133Z,101344.95
2019-05-01T08:33:51.573Z,101339.78
2019-05-01T08:36:25.157Z,101343.03
2019-05-01T08:38:55.646Z,101340.27
2019-05-01T08:41:27.090Z,101344.72
2019-05-01T08:43:57.617Z,101353.36
2019-05-01T08:46:53.537Z,101348.06
2019-05-01T08:49:49.538Z,101347.61
2019-05-01T08:52:23.167Z,101349.05
2019-05-01T08:54:54.988Z,101351.56
2019-05-01T08:57:28.999Z,101347.48
2019-05-01T09:00:00.327Z,101348.92
2019-05-01T09:02:28.769Z,101341.73
2019-05-01T09:05:02.455Z,101339.69
2019-05-01T09:07:30.493Z,101338.71
2019-05-01T09:10:03.182Z,101341.13
2019-05-01T09:12:33.938Z,101339.20
2019-05-01T09:15:07.123Z,101333.39
2019-05-01T09:17:36.275Z,101335.45
2019-05-01T09:20:06.910Z,101335.08
2019-05-01T09:22:37.323Z,101333.76
2019-05-01T09:25:09.189Z,101335.47
2019-05-01T09:27:59.558Z,101326.70
2019-05-01T09:30:34.803Z,101322.70
2019-05-01T09:33:05.578Z,101323.66
2019-05-01T09:35:40.349Z,101329.75
2019-05-01T09:38:08.059Z,101329.19
2019-05-01T09:40:38.556Z,101325.22
2019-05-01T09:43:09.018Z,101326.03
2019-05-01T09:45:38.993Z,101329.75
2019-05-01T09:48:09.548Z,101328.78
2019-05-01T09:50:44.139Z,101332.64
2019-05-01T09:53:34.351Z,101330.64
2019-05-01T09:56:11.721Z,101322.33
2019-05-01T09:59:00.920Z,101327.25
2019-05-01T10:01:32.869Z,101327.64
2019-05-01T10:04:05.528Z,101326.06
2019-05-01T10:06:35.167Z,101317.80
2019-05-01T10:09:12.047Z,101316.70
2019-05-01T10:11:40.770Z,101319.83
2019-05-01T10:14:12.029Z,101312.62
2019-05-01T10:16:43.624Z,101313.09
2019-05-01T10:19:14.471Z,101312.36
2019-05-01T10:21:44.578Z,101309.72
2019-05-01T10:24:15.829Z,101307.67
2019-05-01T10:26:47.786Z,101304.56
2019-05-01T10:29:45.804Z,101303.11
2019-05-01T10:32:38.514Z,101302.99
2019-05-01T10:35:41.965Z,101305.15
2019-05-01T10:38:04.679Z,101305.38
2019-05-01T10:40:34.299Z,101296.50
2019-05-01T10:43:04.641Z,101295.66
2019-05-01T10:45:34.879Z,101291.81
2019-05-01T10:48:06.246Z,101288.93
2019-05-01T10:50:36.544Z,101283.14
2019-05-01T10:53:06.713Z,101285.55
2019-05-01T10:55:36.945Z,101287.23
2019-05-01T10:58:07.001Z,101277.37
2019-05-01T11:00:39.812Z,101278.80
2019-05-01T11:03:10.561Z,101269.19
2019-05-01T11:05:55.378Z,101271.59
2019-05-01T11:08:15.114Z,101267.47
2019-05-01T11:10:45.549Z,101264.70
2019-05-01T11:13:15.843Z,101261.55
2019-05-01T11:15:46.033Z,101250.23
2019-05-01T11:18:16.122Z,101262.10
2019-05-01T11:20:46.410Z,101262.27
2019-05-01T11:23:16.623Z,101254.08
2019-05-01T11:25:46.699Z,101241.56
2019-05-01T11:28:17.926Z,101245.89
2019-05-01T11:30:48.235Z,101245.30
2019-05-01T11:33:30.186Z,101244.57
2019-05-01T11:36:22.464Z,101245.05
2019-05-01T11:39:03.914Z,101248.75
2019-05-01T11:41:39.912Z,101242.97
2019-05-01T11:44:10.088Z,101241.76
2019-05-01T11:46:40.584Z,101237.41
2019-05-01T11:49:10.926Z,101242.36
2019-05-01T11:51:47.465Z,101230.08
2019-05-01T11:54:14.773Z,101231.38
2019-05-01T11:56:44.988Z,101228.59
2019-05-01T11:59:15.036Z,101234.86
2019-05-01T12:01:45.076Z,101232.80
2019-05-01T12:04:19.056Z,101232.15
2019-05-01T12:06:49.150Z,101220.81
2019-05-01T12:09:19.539Z,101220.33
2019-05-01T12:11:55.154Z,101214.92
2019-05-01T12:14:28.323Z,101215.75
2019-05-01T12:17:20.258Z,101215.93
2019-05-01T12:19:50.325Z,101208.19
2019-05-01T12:22:20.332Z,101208.67
2019-05-01T12:24:52.064Z,101208.19
2019-05-01T12:27:22.122Z,101206.20
2019-05-01T12:29:52.717Z,101207.50
2019-05-01T12:32:45.140Z,101205.91
2019-05-01T12:35:15.528Z,101198.22
2019-05-01T12:37:45.874Z,101195.80
2019-05-01T12:40:20.734Z,101198.64
2019-05-01T12:42:50.966Z,101191.59
2019-05-01T12:45:21.479Z,101190.75
2019-05-01T12:47:56.969Z,101194.31
2019-05-01T12:50:27.000Z,101186.81
2019-05-01T12:53:15.634Z,101186.30
2019-05-01T12:56:04.794Z,101183.67
2019-05-01T12:58:38.173Z,101186.52
2019-05-01T13:01:08.172Z,101186.42
2019-05-01T13:03:38.521Z,101181.02
2019-05-01T13:06:08.555Z,101181.95
2019-05-01T13:08:38.578Z,101174.09
2019-05-01T13:11:08.688Z,101178.94
2019-05-01T13:13:39.135Z,101175.58
2019-05-01T13:16:10.541Z,101163.38
2019-05-01T13:18:40.548Z,101160.88
2019-05-01T13:21:10.877Z,101162.37
2019-05-01T13:23:43.069Z,101163.79
2019-05-01T13:26:32.210Z,101158.31
2019-05-01T13:29:14.749Z,101159.45
2019-05-01T13:31:58.780Z,101147.38
2019-05-01T13:34:31.359Z,101148.70
2019-05-01T13:37:03.061Z,101142.70
2019-05-01T13:39:33.436Z,101138.36
2019-05-01T13:42:03.542Z,101132.48
2019-05-01T13:44:36.366Z,101115.53
2019-05-01T13:47:25.851Z,101118.45
2019-05-01T13:49:56.024Z,101114.63
2019-05-01T13:52:26.289Z,101110.06
2019-05-01T13:54:56.887Z,101106.47
2019-05-01T13:57:27.767Z,101097.64
2019-05-01T13:59:58.353Z,101098.44
2019-05-01T14:02:28.565Z,101103.06
2019-05-01T14:05:01.743Z,101097.98
2019-05-01T14:07:32.177Z,101092.05
2019-05-01T14:10:02.559Z,101086.41
2019-05-01T14:12:34.064Z,101085.19
2019-05-01T14:15:04.623Z,101084.91
2019-05-01T14:17:34.958Z,101086.78
2019-05-01T14:20:33.982Z,101077.72
2019-05-01T14:23:09.580Z,101077.34
2019-05-01T14:25:58.059Z,101082.25
2019-05-01T14:28:28.150Z,101075.95
2019-05-01T14:31:00.562Z,101071.36
2019-05-01T14:33:32.257Z,101068.34
2019-05-01T14:36:02.673Z,101061.70
2019-05-01T14:38:32.933Z,101059.45
2019-05-01T14:41:04.742Z,101070.02
2019-05-01T14:43:35.219Z,101058.66
2019-05-01T14:46:09.102Z,101056.16
2019-05-01T14:48:39.221Z,101054.50
2019-05-01T14:51:11.264Z,101056.84
2019-05-01T14:53:44.253Z,101055.45
2019-05-01T14:56:22.447Z,101052.92
2019-05-01T14:58:52.408Z,101048.45
2019-05-01T15:01:22.561Z,101053.45
2019-05-01T15:03:55.913Z,101045.85
2019-05-01T15:06:26.136Z,101043.24
2019-05-01T15:08:56.285Z,101040.67
2019-05-01T15:11:26.602Z,101045.30
2019-05-01T15:14:22.141Z,101038.33
2019-05-01T15:17:17.687Z,101035.84
2019-05-01T15:20:07.171Z,101034.51
2019-05-01T15:22:38.075Z,101028.02
2019-05-01T15:25:08.953Z,101028.62
2019-05-01T15:27:39.007Z,101021.02
2019-05-01T15:30:10.199Z,101013.39
2019-05-01T15:32:40.254Z,101016.08
2019-05-01T15:35:12.340Z,101015.77
2019-05-01T15:37:42.268Z,101009.59
2019-05-01T15:40:21.127Z,101006.27
2019-05-01T15:42:55.820Z,101007.28
2019-05-01T15:45:26.086Z,101002.80
2019-05-01T15:47:56.103Z,101001.47
2019-05-01T15:50:27.557Z,100996.80
2019-05-01T15:52:57.741Z,100992.80
2019-05-01T15:55:30.938Z,100992.50
2019-05-01T15:58:20.824Z,100993.84
2019-05-01T16:00:51.302Z,100991.49
2019-05-01T16:03:22.161Z,100994.52
2019-05-01T16:05:52.552Z,100986.84
2019-05-01T16:08:22.980Z,100987.86
2019-05-01T16:11:08.715Z,100980.00
2019-05-01T16:13:59.810Z,100976.16
2019-05-01T16:16:30.124Z,100985.02
2019-05-01T16:19:04.618Z,100977.50
2019-05-01T16:21:35.109Z,100973.83
2019-05-01T16:24:05.740Z,100970.48
2019-05-01T16:26:37.915Z,100968.16
2019-05-01T16:29:14.306Z,100969.16
2019-05-01T16:31:45.286Z,100967.28
2019-05-01T16:34:15.904Z,100959.77
2019-05-01T16:36:47.253Z,100956.26
2019-05-01T16:39:46.451Z,100954.12
2019-05-01T16:42:16.654Z,100950.97
2019-05-01T16:44:47.960Z,100951.27
2019-05-01T16:47:19.727Z,100950.43
2019-05-01T16:49:49.775Z,100950.77
2019-05-01T16:52:23.004Z,100953.09
2019-05-01T16:54:59.305Z,100949.45
2019-05-01T16:57:27.192Z,100944.08
2019-05-01T16:59:57.338Z,100938.08
2019-05-01T17:02:45.040Z,100941.78
2019-05-01T17:05:26.826Z,100944.12
2019-05-01T17:08:06.236Z,100936.07
2019-05-01T17:10:37.969Z,100935.44
2019-05-01T17:13:08.609Z,100932.43
2019-05-01T17:15:43.426Z,100935.59
2019-05-01T17:18:13.810Z,100924.89
2019-05-01T17:20:43.702Z,100908.06
2019-05-01T17:23:14.009Z,100917.73
2019-05-01T17:25:44.362Z,100917.41
2019-05-01T17:28:14.517Z,100916.08
2019-05-01T17:30:55.282Z,100916.38
2019-05-01T17:33:26.161Z,100914.56
2019-05-01T17:35:56.245Z,100915.86
2019-05-01T17:38:27.645Z,100928.02
2019-05-01T17:40:57.783Z,100923.02
2019-05-01T17:43:28.154Z,100917.61
2019-05-01T17:45:58.612Z,100920.61
2019-05-01T17:48:33.289Z,100913.25
2019-05-01T17:51:01.938Z,100919.23
2019-05-01T17:53:32.761Z,100923.86
2019-05-01T17:56:02.816Z,100921.36
2019-05-01T17:58:32.859Z,100917.83
2019-05-01T18:01:27.946Z,100921.81
2019-05-01T18:04:12.746Z,100916.11
2019-05-01T18:06:46.561Z,100914.25
2019-05-01T18:09:17.065Z,100914.72
2019-05-01T18:11:52.369Z,100918.38
2019-05-01T18:14:19.527Z,100915.16
2019-05-01T18:16:49.514Z,100913.65
2019-05-01T18:19:19.822Z,100910.95
2019-05-01T18:22:00.312Z,100909.24
2019-05-01T18:24:49.496Z,100913.23
2019-05-01T18:27:38.761Z,100908.16
2019-05-01T18:30:15.935Z,100908.11
2019-05-01T18:32:47.545Z,100909.72
2019-05-01T18:35:16.598Z,100908.66
2019-05-01T18:37:58.161Z,100898.98
2019-05-01T18:40:50.138Z,100906.93
2019-05-01T18:43:20.651Z,100909.89
2019-05-01T18:45:53.126Z,100908.81
2019-05-01T18:48:23.942Z,100905.92
2019-05-01T18:50:56.096Z,100911.23
2019-05-01T18:53:26.113Z,100898.37
2019-05-01T18:55:56.363Z,100897.64
2019-05-01T18:58:26.231Z,100899.25
2019-05-01T19:00:56.176Z,100899.85
2019-05-01T19:03:26.017Z,100898.50
2019-05-01T19:05:56.097Z,100901.12
2019-05-01T19:08:26.018Z,100899.05
2019-05-01T19:10:55.894Z,100897.01
2019-05-01T19:13:26.174Z,100901.21
2019-05-01T19:15:56.385Z,100897.81
2019-05-01T19:18:26.251Z,100900.59
2019-05-01T19:20:59.580Z,100902.02
2019-05-01T19:23:29.864Z,100896.64
2019-05-01T19:26:04.954Z,100899.56
2019-05-01T19:28:31.603Z,100897.83
2019-05-01T19:31:01.552Z,100900.12
2019-05-01T19:33:31.463Z,100899.56
2019-05-01T19:36:02.492Z,100898.67
2019-05-01T19:38:35.075Z,100903.58
2019-05-01T19:41:08.852Z,100902.22
2019-05-01T19:43:40.463Z,100900.83
2019-05-01T19:46:08.776Z,100896.92
2019-05-01T19:48:39.039Z,100896.41
2019-05-01T19:51:09.049Z,100899.48
2019-05-01T19:53:39.075Z,100897.53
2019-05-01T19:56:09.155Z,100891.22
2019-05-01T19:58:39.124Z,100890.87
2019-05-01T20:01:09.519Z,100895.63
2019-05-01T20:03:39.875Z,100900.38
2019-05-01T20:06:09.883Z,100893.05
2019-05-01T20:08:39.832Z,100888.84
2019-05-01T20:11:10.027Z,100890.35
2019-05-01T20:13:40.318Z,100887.00
2019-05-01T20:16:11.479Z,100887.14
2019-05-01T20:18:41.389Z,100889.94
2019-05-01T20:21:11.410Z,100884.91
2019-05-01T20:23:41.311Z,100885.19
2019-05-01T20:26:11.263Z,100884.45
2019-05-01T20:28:41.255Z,100890.08
2019-05-01T20:31:11.233Z,100885.60
2019-05-01T20:33:44.471Z,100889.72
2019-05-01T20:36:12.888Z,100892.03
2019-05-01T20:38:42.840Z,100883.02
2019-05-01T20:41:16.057Z,100881.83
2019-05-01T20:43:45.756Z,100883.30
2019-05-01T20:46:15.940Z,100880.78
2019-05-01T20:48:45.956Z,100882.11
2019-05-01T20:51:16.183Z,100876.95
2019-05-01T20:53:46.048Z,100875.62
2019-05-01T20:56:25.300Z,100878.41
2019-05-01T20:58:57.865Z,100877.08
2019-05-01T21:01:28.219Z,100875.27
2019-05-01T21:04:16.506Z,100873.94
2019-05-01T21:06:48.117Z,100876.24
2019-05-01T21:09:20.998Z,100873.41
2019-05-01T21:12:04.974Z,100875.30
2019-05-01T21:14:26.128Z,100873.89
2019-05-01T21:16:55.995Z,100876.64
2019-05-01T21:19:28.738Z,100870.98
2019-05-01T21:21:58.478Z,100871.96
2019-05-01T21:24:28.428Z,100868.53
2019-05-01T21:26:59.590Z,100865.27
2019-05-01T21:29:29.709Z,100863.03
2019-05-01T21:31:59.635Z,100866.31
2019-05-01T21:34:29.520Z,100868.40
2019-05-01T21:37:00.062Z,100876.00
2019-05-01T21:39:29.918Z,100871.97
2019-05-01T21:42:00.037Z,100869.11
2019-05-01T21:44:30.158Z,100866.11
2019-05-01T21:47:00.108Z,100866.03
2019-05-01T21:49:29.978Z,100867.75
2019-05-01T21:51:59.943Z,100858.30
2019-05-01T21:54:30.185Z,100863.25
2019-05-01T21:57:00.168Z,100861.56
2019-05-01T21:59:31.388Z,100858.56
2019-05-01T22:02:05.394Z,100858.92
2019-05-01T22:04:33.202Z,100863.87
2019-05-01T22:07:04.337Z,100863.03
2019-05-01T22:09:35.079Z,100864.63
2019-05-01T22:12:08.393Z,100863.08
2019-05-01T22:14:51.968Z,100862.38
2019-05-01T22:17:32.061Z,100867.14
2019-05-01T22:20:00.366Z,100866.08
2019-05-01T22:22:38.716Z,100863.21
2019-05-01T22:25:24.924Z,100863.13
2019-05-01T22:28:01.276Z,100858.75
2019-05-01T22:30:42.339Z,100863.25
2019-05-01T22:33:09.655Z,100865.55
2019-05-01T22:35:51.656Z,100865.46
2019-05-01T22:38:21.653Z,100860.40
2019-05-01T22:41:06.548Z,100862.02
2019-05-01T22:43:31.370Z,100856.50
2019-05-01T22:46:03.350Z,100856.55
2019-05-01T22:48:33.300Z,100857.78
2019-05-01T22:51:12.551Z,100853.75
2019-05-01T22:53:42.498Z,100856.66
2019-05-01T22:56:12.614Z,100849.95
2019-05-01T22:58:42.471Z,100851.17
2019-05-01T23:01:17.804Z,100845.69
2019-05-01T23:03:48.577Z,100839.81
2019-05-01T23:06:18.701Z,100840.92
2019-05-01T23:08:49.093Z,100834.91
2019-05-01T23:11:20.508Z,100843.11
2019-05-01T23:13:51.751Z,100842.56
2019-05-01T23:16:23.460Z,100832.24
2019-05-01T23:18:53.428Z,100831.53
2019-05-01T23:21:24.346Z,100836.38
2019-05-01T23:23:56.932Z,100829.05
2019-05-01T23:26:27.014Z,100831.02
2019-05-01T23:28:56.965Z,100826.34
2019-05-01T23:31:27.601Z,100832.59
2019-05-01T23:33:57.500Z,100825.28
2019-05-01T23:36:27.463Z,100826.24
2019-05-01T23:38:57.652Z,100824.08
2019-05-01T23:41:44.597Z,100823.85
2019-05-01T23:44:03.602Z,100824.69
2019-05-01T23:46:30.678Z,100824.47
2019-05-01T23:49:00.565Z,100818.47
2019-05-01T23:51:30.463Z,100821.23
2019-05-01T23:54:00.336Z,100821.05
2019-05-01T23:56:31.146Z,100817.33
2019-05-01T23:59:01.946Z,100809.39
